Eems Servant — PBTI — position and weather

sailwx.info

Track history (hours):
 
Tides and Currents Weather Stations Pressure Air Temp Water Temp Dewpoint Dewpoint Depression Visibility Wind Speed Wind Dir Waves Ship Positions

Eems Servant

Last reported at 2015-May-06 12:33 UTC. Time now 2015-May-06 13:30 UTC.
Position N 55°21' E 014°29'.

Length 87 m; draft 4.3 m.

Type: Cargo ship. MMSI: 246236000.

Date/timePositionNaut miles runAvg speedWind from/ knotsBaromVisibWave heightAir tempDewpointWater temp
2015-May-06 12:33N 55°21' E 014°29'9 8.8
2015-May-06 11:33N 55°27' E 014°40'9 8.8
2015-May-06 10:33N 55°32' E 014°53'11 8.7
2015-May-06 09:21N 55°37' E 015°09'  
2015-May-01 03:33N 59°59' E 026°45'9 9.2
2015-May-01 02:33N 59°58' E 026°27'58 9.5
2015-Apr-30 20:28N 59°44' E 024°35'30 9.3
2015-Apr-30 17:13N 59°36' E 023°38'384 9.2
2015-Apr-28 23:12N 54°50' E 015°43'56 9.5
2015-Apr-28 17:22N 54°11' E 014°35'8 9.5
2015-Apr-28 16:33N 54°05' E 014°26'9 9.0
2015-Apr-28 15:33N 53°58' E 014°16'5 5.1
2015-Apr-28 14:33N 53°53' E 014°16'9 9.2
2015-Apr-28 13:33N 53°46' E 014°24'1010.0
2015-Apr-28 12:33N 53°38' E 014°35'9 9.1
2015-Apr-28 11:33N 53°29' E 014°37'4 4.0
2015-Apr-28 10:33N 53°25' E 014°36'0 0.0
2015-Apr-28 09:33N 53°25' E 014°36'0 0.0
2015-Apr-28 08:33N 53°25' E 014°36'0 0.0
2015-Apr-28 07:33N 53°25' E 014°36'0 0.0
2015-Apr-28 06:33N 53°25' E 014°36'0 0.0
2015-Apr-28 05:33N 53°25' E 014°36'0 0.0
2015-Apr-28 04:30N 53°25' E 014°36'0 0.0
2015-Apr-28 03:33N 53°25' E 014°36'0 0.0
2015-Apr-28 02:33N 53°25' E 014°36'0 0.0
2015-Apr-28 01:30N 53°25' E 014°36'0 0.0
2015-Apr-28 00:33N 53°25' E 014°36'0 0.0
2015-Apr-27 23:33N 53°25' E 014°36'0 0.0
2015-Apr-27 22:33N 53°25' E 014°36'0 0.0
2015-Apr-27 21:33N 53°25' E 014°36'0 0.0
2015-Apr-27 20:33N 53°25' E 014°36'0 0.0
2015-Apr-27 19:33N 53°25' E 014°36'0 0.0
2015-Apr-27 18:33N 53°25' E 014°36'0 0.0
2015-Apr-27 17:33N 53°25' E 014°36'0 0.0
2015-Apr-27 16:33N 53°25' E 014°36'0 0.0
2015-Apr-27 15:33N 53°25' E 014°36'0 0.0
2015-Apr-27 14:33N 53°25' E 014°36'0 0.0
2015-Apr-27 13:33N 53°25' E 014°36'0 0.0
2015-Apr-27 12:33N 53°25' E 014°36'0 0.0
2015-Apr-27 11:33N 53°25' E 014°36'0 0.0
2015-Apr-27 10:33N 53°25' E 014°36'0 0.0
2015-Apr-27 09:33N 53°25' E 014°36'0 0.0
2015-Apr-27 08:33N 53°25' E 014°36'0 0.0
2015-Apr-27 07:33N 53°25' E 014°36'0 0.0
2015-Apr-27 06:33N 53°25' E 014°36'0 0.0
2015-Apr-27 05:33N 53°25' E 014°36'3 2.5
2015-Apr-27 04:33N 53°27' E 014°36'8 7.8
2015-Apr-27 03:33N 53°35' E 014°36'9 8.9
2015-Apr-27 02:33N 53°43' E 014°28'9 9.0
2015-Apr-27 01:33N 53°50' E 014°19'7 6.6
2015-Apr-27 00:34N 53°56' E 014°16'2 2.0
2015-Apr-26 23:31N 53°58' E 014°15'0 0.0
2015-Apr-26 22:31N 53°58' E 014°15'0 0.0
2015-Apr-26 21:31N 53°58' E 014°15'0 0.0
2015-Apr-26 20:31N 53°58' E 014°15'0 0.0
2015-Apr-26 19:31N 53°58' E 014°15'0 0.0
2015-Apr-26 18:31N 53°58' E 014°15'0 0.0
2015-Apr-26 17:31N 53°58' E 014°15'0 0.0
2015-Apr-26 16:31N 53°58' E 014°15'0 0.0
2015-Apr-26 15:31N 53°58' E 014°15'0 0.0
2015-Apr-26 14:31N 53°58' E 014°15'0 0.0
2015-Apr-26 13:31N 53°58' E 014°15'  
Track history (hours):
 
Tides and Currents Weather Stations Pressure Air Temp Water Temp Dewpoint Dewpoint Depression Visibility Wind Speed Wind Dir Waves Ship Positions

Eems Servant

Last reported at 2015-May-06 12:33 UTC. Time now 2015-May-06 13:31 UTC.
Position N 55°21' E 014°29'.

Length 87 m; draft 4.3 m.

Type: Cargo ship. MMSI: 246236000.

Date/timePositionNaut miles runAvg speedWind from/ knotsBaromVisibWave heightAir tempDewpointWater temp
2015-May-06 12:33N 55°21' E 014°29'9 8.8
2015-May-06 11:33N 55°27' E 014°40'9 8.8
2015-May-06 10:33N 55°32' E 014°53'11 8.7
2015-May-06 09:21N 55°37' E 015°09'  
2015-May-01 03:33N 59°59' E 026°45'9 9.2
2015-May-01 02:33N 59°58' E 026°27'58 9.5
2015-Apr-30 20:28N 59°44' E 024°35'30 9.3
2015-Apr-30 17:13N 59°36' E 023°38'384 9.2
2015-Apr-28 23:12N 54°50' E 015°43'56 9.5
2015-Apr-28 17:22N 54°11' E 014°35'8 9.5
2015-Apr-28 16:33N 54°05' E 014°26'9 9.0
2015-Apr-28 15:33N 53°58' E 014°16'5 5.1
2015-Apr-28 14:33N 53°53' E 014°16'9 9.2
2015-Apr-28 13:33N 53°46' E 014°24'1010.0
2015-Apr-28 12:33N 53°38' E 014°35'9 9.1
2015-Apr-28 11:33N 53°29' E 014°37'4 4.0
2015-Apr-28 10:33N 53°25' E 014°36'0 0.0
2015-Apr-28 09:33N 53°25' E 014°36'0 0.0
2015-Apr-28 08:33N 53°25' E 014°36'0 0.0
2015-Apr-28 07:33N 53°25' E 014°36'0 0.0
2015-Apr-28 06:33N 53°25' E 014°36'0 0.0
2015-Apr-28 05:33N 53°25' E 014°36'0 0.0
2015-Apr-28 04:30N 53°25' E 014°36'0 0.0
2015-Apr-28 03:33N 53°25' E 014°36'0 0.0
2015-Apr-28 02:33N 53°25' E 014°36'0 0.0
2015-Apr-28 01:30N 53°25' E 014°36'0 0.0
2015-Apr-28 00:33N 53°25' E 014°36'0 0.0
2015-Apr-27 23:33N 53°25' E 014°36'0 0.0
2015-Apr-27 22:33N 53°25' E 014°36'0 0.0
2015-Apr-27 21:33N 53°25' E 014°36'0 0.0
2015-Apr-27 20:33N 53°25' E 014°36'0 0.0
2015-Apr-27 19:33N 53°25' E 014°36'0 0.0
2015-Apr-27 18:33N 53°25' E 014°36'0 0.0
2015-Apr-27 17:33N 53°25' E 014°36'0 0.0
2015-Apr-27 16:33N 53°25' E 014°36'0 0.0
2015-Apr-27 15:33N 53°25' E 014°36'0 0.0
2015-Apr-27 14:33N 53°25' E 014°36'0 0.0
2015-Apr-27 13:33N 53°25' E 014°36'0 0.0
2015-Apr-27 12:33N 53°25' E 014°36'0 0.0
2015-Apr-27 11:33N 53°25' E 014°36'0 0.0
2015-Apr-27 10:33N 53°25' E 014°36'0 0.0
2015-Apr-27 09:33N 53°25' E 014°36'0 0.0
2015-Apr-27 08:33N 53°25' E 014°36'0 0.0
2015-Apr-27 07:33N 53°25' E 014°36'0 0.0
2015-Apr-27 06:33N 53°25' E 014°36'0 0.0
2015-Apr-27 05:33N 53°25' E 014°36'3 2.5
2015-Apr-27 04:33N 53°27' E 014°36'8 7.8
2015-Apr-27 03:33N 53°35' E 014°36'9 8.9
2015-Apr-27 02:33N 53°43' E 014°28'9 9.0
2015-Apr-27 01:33N 53°50' E 014°19'7 6.6
2015-Apr-27 00:34N 53°56' E 014°16'2 2.0
2015-Apr-26 23:31N 53°58' E 014°15'0 0.0
2015-Apr-26 22:31N 53°58' E 014°15'0 0.0
2015-Apr-26 21:31N 53°58' E 014°15'0 0.0
2015-Apr-26 20:31N 53°58' E 014°15'0 0.0
2015-Apr-26 19:31N 53°58' E 014°15'0 0.0
2015-Apr-26 18:31N 53°58' E 014°15'0 0.0
2015-Apr-26 17:31N 53°58' E 014°15'0 0.0
2015-Apr-26 16:31N 53°58' E 014°15'0 0.0
2015-Apr-26 15:31N 53°58' E 014°15'0 0.0
2015-Apr-26 14:31N 53°58' E 014°15'0 0.0
2015-Apr-26 13:31N 53°58' E 014°15'  

Dump ship's entire track history